Time;durP1;ratioP1;P1;durP2;ratioP2;P2;SDS_P1;SDS_P2;PMS_P1;PMS_P2;Temp;Humidity;BMP_temperature;BMP_pressure;BME280_temperature;BME280_humidity;BME280_pressure;Samples;Min_cycle;Max_cycle;Signal;HPM_P1;HPM_P2
2023/03/18 00:00:44;;;;;;;9.15;6.90;;;11.70;68.90;;;;;;5093013;28;20307;-78
2023/03/18 00:03:14;;;;;;;9.98;6.88;;;11.70;68.90;;;;;;5078251;28;20247;-79
2023/03/18 00:05:41;;;;;;;7.47;6.63;;;11.70;68.80;;;;;;5065039;28;20243;-77
2023/03/18 00:08:09;;;;;;;7.40;6.60;;;11.70;68.90;;;;;;5073085;28;20235;-78
2023/03/18 00:10:36;;;;;;;8.65;6.45;;;11.70;68.80;;;;;;5082611;28;20216;-77
2023/03/18 00:13:04;;;;;;;6.65;5.95;;;11.70;68.70;;;;;;5069767;28;20231;-77
2023/03/18 00:15:31;;;;;;;9.60;6.80;;;11.70;68.70;;;;;;5081322;28;20283;-80
2023/03/18 00:17:59;;;;;;;9.13;6.10;;;11.70;68.80;;;;;;5065425;28;20291;-77
2023/03/18 00:20:37;;;;;;;11.98;6.15;;;11.70;68.50;;;;;;5072792;28;20228;-76
2023/03/18 00:23:08;;;;;;;10.00;6.95;;;11.70;68.70;;;;;;5084161;28;20201;-76
2023/03/18 00:25:35;;;;;;;7.78;6.97;;;11.70;68.70;;;;;;5084266;28;20331;-77
2023/03/18 00:28:03;;;;;;;13.77;5.75;;;11.70;68.70;;;;;;5077768;28;20282;-79
2023/03/18 00:30:30;;;;;;;7.75;6.60;;;11.70;68.80;;;;;;5078529;28;20217;-78
2023/03/18 00:32:57;;;;;;;7.88;6.63;;;11.70;68.70;;;;;;5074783;28;20277;-79
2023/03/18 00:35:29;;;;;;;7.60;6.90;;;11.70;68.70;;;;;;5060760;28;20224;-80
2023/03/18 00:37:57;;;;;;;7.57;5.30;;;11.70;68.60;;;;;;5076940;28;20319;-79
2023/03/18 00:40:29;;;;;;;7.90;6.35;;;11.70;68.60;;;;;;5076712;28;20314;-81
2023/03/18 00:43:06;;;;;;;8.70;6.72;;;11.70;68.50;;;;;;5076176;28;20285;-79
2023/03/18 00:45:37;;;;;;;8.40;6.47;;;11.70;68.50;;;;;;5057727;28;20531;-80
2023/03/18 00:48:04;;;;;;;7.10;6.22;;;11.70;68.40;;;;;;5061210;28;20220;-80
2023/03/18 00:50:32;;;;;;;8.63;6.20;;;11.70;68.40;;;;;;5054404;28;20220;-80
2023/03/18 00:52:59;;;;;;;10.10;5.72;;;11.70;68.50;;;;;;5068309;28;20685;-80
2023/03/18 00:55:27;;;;;;;10.75;5.78;;;11.70;69.30;;;;;;5054106;28;21160;-80
2023/03/18 00:57:54;;;;;;;8.27;6.07;;;11.60;68.50;;;;;;5064510;28;20313;-80
2023/03/18 01:00:22;;;;;;;8.18;6.88;;;11.60;68.20;;;;;;5065058;28;20228;-80
2023/03/18 01:02:49;;;;;;;6.43;5.80;;;11.60;68.30;;;;;;5072239;28;20220;-80
2023/03/18 01:05:17;;;;;;;10.63;6.68;;;11.60;68.30;;;;;;5060368;28;20610;-78
2023/03/18 01:07:46;;;;;;;6.38;5.68;;;11.50;68.10;;;;;;5062379;28;20220;-77
2023/03/18 01:10:14;;;;;;;8.32;5.93;;;11.50;68.30;;;;;;5065003;28;20236;-77
2023/03/18 01:12:42;;;;;;;7.35;5.75;;;11.50;68.20;;;;;;5066367;28;20227;-80
2023/03/18 01:15:29;;;;;;;10.07;6.18;;;11.50;68.50;;;;;;5063806;28;20215;-77
2023/03/18 01:17:57;;;;;;;8.18;5.57;;;11.50;68.60;;;;;;5095371;28;20222;-78
2023/03/18 01:20:25;;;;;;;7.90;5.43;;;11.50;68.60;;;;;;5080619;28;20242;-76
2023/03/18 01:22:53;;;;;;;7.35;5.70;;;11.50;68.60;;;;;;5084275;28;20223;-80
2023/03/18 01:25:21;;;;;;;7.32;5.75;;;11.50;68.40;;;;;;5077315;28;20258;-80
2023/03/18 01:27:48;;;;;;;6.60;5.95;;;11.40;68.40;;;;;;5066010;28;20862;-79
2023/03/18 01:30:16;;;;;;;8.82;5.97;;;11.40;68.40;;;;;;5063933;28;20224;-80
2023/03/18 01:32:43;;;;;;;5.50;4.85;;;11.40;68.60;;;;;;5068230;28;20225;-76
2023/03/18 01:35:12;;;;;;;9.25;6.05;;;11.40;68.50;;;;;;5083910;28;20574;-80
2023/03/18 01:37:45;;;;;;;7.88;5.63;;;11.40;68.40;;;;;;5092927;28;20223;-80
2023/03/18 01:40:15;;;;;;;7.57;5.45;;;11.30;68.20;;;;;;5064017;28;20223;-78
2023/03/18 01:42:44;;;;;;;6.32;5.45;;;11.30;68.20;;;;;;5069489;28;20590;-79
2023/03/18 01:45:18;;;;;;;7.18;5.57;;;11.30;68.50;;;;;;5071644;28;20224;-76
2023/03/18 01:47:46;;;;;;;5.68;5.07;;;11.30;68.30;;;;;;5061498;28;20680;-79
2023/03/18 01:50:16;;;;;;;6.20;5.60;;;11.40;68.50;;;;;;5066730;28;20345;-76
2023/03/18 01:52:45;;;;;;;6.22;5.63;;;11.30;68.20;;;;;;5071579;28;20345;-79
2023/03/18 01:55:18;;;;;;;7.50;5.85;;;11.30;68.40;;;;;;5071745;28;20698;-76
2023/03/18 01:57:46;;;;;;;7.05;5.15;;;11.40;68.40;;;;;;5063217;28;20224;-79
2023/03/18 02:00:15;;;;;;;7.05;5.63;;;11.40;68.40;;;;;;5075357;28;20223;-79
2023/03/18 02:02:44;;;;;;;6.00;5.40;;;11.30;68.40;;;;;;5064043;28;20224;-79
2023/03/18 02:05:16;;;;;;;5.80;5.18;;;11.40;68.60;;;;;;5071044;28;20231;-76
2023/03/18 02:07:44;;;;;;;6.70;5.95;;;11.30;68.30;;;;;;5056838;28;20228;-78
2023/03/18 02:10:18;;;;;;;6.20;5.43;;;11.30;68.30;;;;;;5064040;28;20247;-79
2023/03/18 02:12:50;;;;;;;5.75;5.05;;;11.30;68.10;;;;;;5071456;28;20219;-76
2023/03/18 02:15:22;;;;;;;5.30;4.75;;;11.30;68.40;;;;;;5074990;28;20258;-77
2023/03/18 02:18:07;;;;;;;8.32;6.03;;;11.30;68.50;;;;;;5072069;28;20292;-76
2023/03/18 02:20:48;;;;;;;5.63;5.05;;;11.40;68.50;;;;;;5075855;28;20289;-77
2023/03/18 02:23:23;;;;;;;9.48;5.35;;;11.40;68.50;;;;;;5075735;28;20247;-77
2023/03/18 02:25:59;;;;;;;7.80;6.05;;;11.30;68.10;;;;;;5076235;28;20216;-76
2023/03/18 02:28:31;;;;;;;8.18;5.75;;;11.30;68.20;;;;;;5074725;28;20254;-79
2023/03/18 02:31:02;;;;;;;6.60;5.00;;;11.30;68.30;;;;;;5076245;28;20224;-79
2023/03/18 02:33:32;;;;;;;6.00;5.47;;;11.30;68.30;;;;;;5075572;28;20286;-79
2023/03/18 02:36:04;;;;;;;8.07;5.80;;;11.40;68.50;;;;;;5076255;28;20281;-79
2023/03/18 02:38:35;;;;;;;6.35;5.20;;;11.40;68.50;;;;;;5075301;28;20228;-79
2023/03/18 02:41:02;;;;;;;9.07;5.28;;;11.40;68.40;;;;;;5076110;28;20293;-76
2023/03/18 02:43:32;;;;;;;6.30;5.07;;;11.50;68.30;;;;;;5074217;28;20331;-76
2023/03/18 02:46:14;;;;;;;7.25;5.53;;;11.50;68.10;;;;;;5075542;28;20227;-76
2023/03/18 02:48:43;;;;;;;6.20;5.60;;;11.50;67.80;;;;;;5074825;28;20223;-77
2023/03/18 02:51:11;;;;;;;6.53;5.82;;;11.60;67.90;;;;;;5074903;28;20219;-77
2023/03/18 02:53:39;;;;;;;6.03;5.50;;;11.60;67.60;;;;;;5074793;28;20298;-77
2023/03/18 02:56:07;;;;;;;5.93;5.22;;;11.70;67.60;;;;;;5074998;28;20216;-76
2023/03/18 02:58:36;;;;;;;7.78;5.88;;;11.70;67.00;;;;;;5061394;28;20236;-76
2023/03/18 03:01:03;;;;;;;6.13;5.47;;;11.70;67.10;;;;;;5074808;28;20216;-76
2023/03/18 03:03:31;;;;;;;6.22;5.60;;;11.80;67.00;;;;;;5068408;28;20223;-76
2023/03/18 03:05:58;;;;;;;5.10;4.60;;;11.80;66.70;;;;;;5068379;28;20216;-76
2023/03/18 03:08:25;;;;;;;7.70;6.38;;;11.90;66.90;;;;;;5074681;28;20240;-80
2023/03/18 03:10:52;;;;;;;7.00;6.22;;;11.90;66.20;;;;;;5056601;28;20221;-80
2023/03/18 03:13:20;;;;;;;7.07;5.57;;;11.90;65.90;;;;;;5058728;28;20316;-77
2023/03/18 03:15:49;;;;;;;8.05;5.20;;;12.00;66.20;;;;;;5069167;28;20224;-76
2023/03/18 03:18:16;;;;;;;6.93;5.65;;;12.00;66.20;;;;;;5066825;28;20281;-77
2023/03/18 03:20:44;;;;;;;5.22;4.72;;;12.00;67.00;;;;;;5075181;28;20239;-79
2023/03/18 03:23:13;;;;;;;7.05;5.63;;;12.10;66.10;;;;;;5080156;28;20230;-77
2023/03/18 03:25:40;;;;;;;5.75;5.05;;;12.10;66.00;;;;;;5073989;28;20232;-77
2023/03/18 03:28:08;;;;;;;6.63;5.00;;;12.10;65.90;;;;;;5067583;28;20224;-79
2023/03/18 03:30:36;;;;;;;5.80;5.10;;;12.10;66.10;;;;;;5075060;28;20224;-80
2023/03/18 03:33:05;;;;;;;5.85;5.20;;;12.10;66.00;;;;;;5075315;28;20220;-76
2023/03/18 03:35:33;;;;;;;7.90;5.43;;;12.10;65.90;;;;;;5091284;28;20212;-77
2023/03/18 03:38:00;;;;;;;7.03;5.57;;;12.10;65.80;;;;;;5080715;28;20223;-77
2023/03/18 03:40:28;;;;;;;6.15;5.55;;;12.10;65.90;;;;;;5072093;28;20231;-77
2023/03/18 03:42:55;;;;;;;6.32;5.70;;;12.10;65.90;;;;;;5070010;28;20224;-77
2023/03/18 03:45:22;;;;;;;8.55;5.35;;;12.10;65.90;;;;;;5074002;28;20304;-77
2023/03/18 03:47:50;;;;;;;8.60;6.20;;;12.00;65.80;;;;;;5074141;28;20258;-80
2023/03/18 03:50:19;;;;;;;7.38;5.85;;;11.90;65.80;;;;;;5064434;28;20580;-76
2023/03/18 03:52:48;;;;;;;7.70;5.45;;;11.90;66.20;;;;;;5063663;28;20607;-76
2023/03/18 03:55:18;;;;;;;6.40;5.72;;;11.90;66.70;;;;;;5071123;28;20277;-79
2023/03/18 03:57:45;;;;;;;6.18;5.20;;;11.90;67.00;;;;;;5068503;28;21204;-80
2023/03/18 04:00:16;;;;;;;5.65;5.00;;;11.90;67.00;;;;;;5064640;28;20232;-77
2023/03/18 04:02:44;;;;;;;5.63;5.13;;;11.80;66.90;;;;;;5069848;28;20233;-79
2023/03/18 04:05:12;;;;;;;7.80;6.03;;;11.80;67.00;;;;;;5072772;28;20251;-75
2023/03/18 04:07:41;;;;;;;7.00;6.30;;;11.80;67.10;;;;;;5082179;28;20227;-79
2023/03/18 04:10:11;;;;;;;6.47;5.80;;;11.80;67.30;;;;;;5072403;28;20227;-78
2023/03/18 04:12:38;;;;;;;6.40;5.68;;;11.70;67.30;;;;;;5063636;28;20228;-79
2023/03/18 04:15:06;;;;;;;6.40;5.40;;;11.70;67.50;;;;;;5060197;28;20222;-77
2023/03/18 04:17:34;;;;;;;8.02;5.43;;;11.70;67.70;;;;;;5093378;28;20223;-79
2023/03/18 04:20:02;;;;;;;8.10;4.63;;;11.70;68.00;;;;;;5094769;28;20219;-79
2023/03/18 04:22:29;;;;;;;8.05;5.60;;;11.70;68.20;;;;;;5088130;28;20220;-79
2023/03/18 04:25:01;;;;;;;7.88;5.15;;;11.70;68.20;;;;;;5078300;28;20692;-79
2023/03/18 04:27:28;;;;;;;6.18;5.53;;;11.70;68.20;;;;;;5075447;28;20228;-77
2023/03/18 04:29:55;;;;;;;7.03;6.30;;;11.70;68.20;;;;;;5074117;28;20220;-79
2023/03/18 04:32:23;;;;;;;6.50;5.35;;;11.70;68.30;;;;;;5074344;28;20254;-79
2023/03/18 04:34:50;;;;;;;5.28;4.75;;;11.70;68.20;;;;;;5073093;28;20224;-76
2023/03/18 04:37:19;;;;;;;6.50;5.50;;;11.70;68.20;;;;;;5064642;28;20227;-75
2023/03/18 04:39:47;;;;;;;7.03;5.18;;;11.70;68.40;;;;;;5072723;28;20349;-76
2023/03/18 04:42:15;;;;;;;5.85;5.25;;;11.70;68.50;;;;;;5089827;28;20223;-79
2023/03/18 04:44:42;;;;;;;9.52;6.38;;;11.70;68.50;;;;;;5093622;28;20572;-79
2023/03/18 04:47:10;;;;;;;8.80;5.68;;;11.70;68.90;;;;;;5094286;28;20231;-79
2023/03/18 04:49:37;;;;;;;5.57;5.07;;;11.70;69.20;;;;;;5093882;28;20223;-76
2023/03/18 04:52:06;;;;;;;6.72;5.85;;;11.70;69.20;;;;;;5084972;28;20219;-76
2023/03/18 04:54:33;;;;;;;5.85;5.25;;;11.70;69.20;;;;;;5072815;28;20247;-79
2023/03/18 04:57:01;;;;;;;5.43;4.57;;;11.70;69.10;;;;;;5066148;28;20247;-79
2023/03/18 04:59:29;;;;;;;5.80;5.30;;;11.70;69.10;;;;;;5068910;28;20331;-80
2023/03/18 05:01:56;;;;;;;22.60;19.00;;;11.70;69.80;;;;;;5070045;28;20761;-77
2023/03/18 05:04:23;;;;;;;18.00;13.90;;;11.70;70.20;;;;;;5070195;28;20685;-76
2023/03/18 05:06:50;;;;;;;9.95;7.60;;;11.70;70.90;;;;;;5068315;28;20216;-76
2023/03/18 05:09:18;;;;;;;6.38;5.75;;;11.70;70.70;;;;;;5067292;28;20760;-76
2023/03/18 05:11:45;;;;;;;6.25;5.50;;;11.70;70.40;;;;;;5070533;28;20230;-76
2023/03/18 05:14:14;;;;;;;7.60;6.10;;;11.70;69.90;;;;;;5072117;28;20250;-75
2023/03/18 05:16:43;;;;;;;6.35;5.53;;;11.70;70.10;;;;;;5072598;28;20223;-76
2023/03/18 05:19:10;;;;;;;5.90;4.80;;;11.60;70.00;;;;;;5073302;28;20224;-76
2023/03/18 05:21:37;;;;;;;5.35;4.88;;;11.60;70.20;;;;;;5073990;28;20224;-79
2023/03/18 05:24:05;;;;;;;6.90;5.90;;;11.60;71.00;;;;;;5073346;28;20224;-76
2023/03/18 05:26:34;;;;;;;7.22;5.38;;;11.50;71.10;;;;;;5073225;28;20227;-79
2023/03/18 05:29:02;;;;;;;7.00;5.68;;;11.50;71.40;;;;;;5071766;28;20528;-79
2023/03/18 05:31:29;;;;;;;6.68;5.68;;;11.50;71.70;;;;;;5073251;28;20231;-76
2023/03/18 05:33:59;;;;;;;6.78;5.82;;;11.50;71.80;;;;;;5072665;28;20219;-76
2023/03/18 05:36:26;;;;;;;7.00;5.22;;;11.50;72.20;;;;;;5069165;28;20216;-79
2023/03/18 05:38:53;;;;;;;11.02;6.18;;;11.50;72.20;;;;;;5059449;28;20225;-76
2023/03/18 05:41:20;;;;;;;5.95;5.40;;;11.40;71.80;;;;;;5073379;28;20309;-79
2023/03/18 05:43:47;;;;;;;5.57;5.03;;;11.40;71.70;;;;;;5073276;28;20230;-79
2023/03/18 05:46:14;;;;;;;8.63;6.00;;;11.40;71.30;;;;;;5075250;28;20749;-79
2023/03/18 05:48:42;;;;;;;8.57;5.40;;;11.40;71.10;;;;;;5071522;28;20642;-80
2023/03/18 05:51:11;;;;;;;6.63;5.97;;;11.40;71.40;;;;;;5073018;28;21323;-80
2023/03/18 05:53:38;;;;;;;6.20;5.60;;;11.40;71.60;;;;;;5073523;28;20230;-80
2023/03/18 05:56:06;;;;;;;6.70;5.80;;;11.40;71.50;;;;;;5072650;28;20224;-80
2023/03/18 05:58:34;;;;;;;8.10;5.15;;;11.40;71.70;;;;;;5072803;28;20625;-80
2023/03/18 06:01:01;;;;;;;5.53;5.00;;;11.40;71.80;;;;;;5072492;28;20697;-79
2023/03/18 06:03:28;;;;;;;9.70;5.68;;;11.50;71.90;;;;;;5073563;28;20254;-79
2023/03/18 06:05:55;;;;;;;6.40;5.72;;;11.50;71.70;;;;;;5073033;28;20248;-79
2023/03/18 06:08:24;;;;;;;7.28;5.70;;;11.50;71.40;;;;;;5073042;28;20234;-76
2023/03/18 06:10:51;;;;;;;6.50;5.50;;;11.40;70.90;;;;;;5072466;28;20619;-79
2023/03/18 06:13:21;;;;;;;5.53;4.75;;;11.40;71.00;;;;;;5063849;28;20220;-76
2023/03/18 06:15:48;;;;;;;6.28;5.68;;;11.50;71.40;;;;;;5072196;28;20224;-79
2023/03/18 06:18:19;;;;;;;7.57;6.38;;;11.50;71.50;;;;;;5072960;28;20753;-76
2023/03/18 06:20:46;;;;;;;6.85;5.70;;;11.50;71.30;;;;;;5072622;28;20234;-76
2023/03/18 06:23:13;;;;;;;6.15;5.55;;;11.50;71.10;;;;;;5072115;28;20262;-76
2023/03/18 06:25:42;;;;;;;6.35;5.75;;;11.50;71.40;;;;;;5072914;28;20293;-76
2023/03/18 06:28:09;;;;;;;6.45;5.82;;;11.50;71.10;;;;;;5072476;28;20239;-79
2023/03/18 06:30:36;;;;;;;7.00;5.25;;;11.50;71.40;;;;;;5073251;28;20232;-80
2023/03/18 06:33:03;;;;;;;8.15;5.82;;;11.50;71.80;;;;;;5072234;28;20345;-76
2023/03/18 06:35:30;;;;;;;6.25;5.65;;;11.60;72.50;;;;;;5072847;28;20251;-76
2023/03/18 06:37:57;;;;;;;6.43;5.82;;;11.50;72.20;;;;;;5072364;28;20228;-78
2023/03/18 06:40:25;;;;;;;6.78;6.18;;;11.50;72.20;;;;;;5074798;28;20232;-76
2023/03/18 06:42:53;;;;;;;7.20;5.63;;;11.50;72.10;;;;;;5075659;28;20250;-77
2023/03/18 06:45:21;;;;;;;6.68;5.97;;;11.50;72.10;;;;;;5075903;28;20277;-79
2023/03/18 06:47:49;;;;;;;9.50;6.45;;;11.50;71.90;;;;;;5076032;28;20236;-76
2023/03/18 06:50:19;;;;;;;7.28;5.80;;;11.50;72.10;;;;;;5075586;28;20234;-76
2023/03/18 06:52:48;;;;;;;6.75;5.40;;;11.50;72.30;;;;;;5076522;28;20216;-79
2023/03/18 06:55:15;;;;;;;8.90;5.72;;;11.50;72.30;;;;;;5076486;28;20282;-79
2023/03/18 06:57:43;;;;;;;10.38;4.90;;;11.50;72.50;;;;;;5077411;28;20617;-79
2023/03/18 07:00:13;;;;;;;8.43;5.93;;;11.50;72.50;;;;;;5077341;28;20565;-79
2023/03/18 07:02:41;;;;;;;7.22;6.00;;;11.50;72.60;;;;;;5077508;28;20669;-79
2023/03/18 07:05:09;;;;;;;5.28;4.78;;;11.50;72.40;;;;;;5077975;28;20216;-77
2023/03/18 07:07:37;;;;;;;7.20;5.85;;;11.50;72.50;;;;;;5079095;28;20227;-80
2023/03/18 07:10:05;;;;;;;8.23;5.10;;;11.50;72.50;;;;;;5077401;28;20275;-79
2023/03/18 07:12:32;;;;;;;5.70;5.20;;;11.50;72.80;;;;;;5077985;28;20284;-80
2023/03/18 07:15:00;;;;;;;8.20;7.10;;;11.50;73.00;;;;;;5074446;28;20220;-77
2023/03/18 07:17:28;;;;;;;6.85;6.00;;;11.60;73.50;;;;;;5078196;28;20219;-76
2023/03/18 07:19:55;;;;;;;7.00;5.55;;;11.60;74.30;;;;;;5079090;28;20223;-76
2023/03/18 07:22:23;;;;;;;7.75;5.90;;;11.70;74.10;;;;;;5090406;28;20629;-76
2023/03/18 07:24:51;;;;;;;7.18;5.57;;;11.70;74.00;;;;;;5085886;28;20326;-79
2023/03/18 07:27:18;;;;;;;7.78;5.35;;;11.70;74.00;;;;;;5094591;28;20539;-78
2023/03/18 07:29:45;;;;;;;10.38;6.55;;;11.80;73.80;;;;;;5097014;28;20280;-75
2023/03/18 07:32:12;;;;;;;6.97;6.10;;;11.80;73.40;;;;;;5082778;28;20281;-76
2023/03/18 07:34:41;;;;;;;8.20;6.65;;;11.80;73.40;;;;;;5083194;28;20230;-78
2023/03/18 07:37:08;;;;;;;10.10;6.93;;;11.90;73.70;;;;;;5097902;28;20225;-76
2023/03/18 07:39:36;;;;;;;6.28;5.65;;;11.90;73.90;;;;;;5070667;28;20221;-77
2023/03/18 07:42:03;;;;;;;9.15;6.30;;;11.90;73.90;;;;;;5055638;28;20248;-77
2023/03/18 07:44:31;;;;;;;9.40;8.50;;;11.90;73.80;;;;;;5058942;28;20217;-79
2023/03/18 07:46:58;;;;;;;9.05;7.88;;;12.00;74.00;;;;;;5065631;28;20303;-79
2023/03/18 07:49:25;;;;;;;8.23;6.68;;;12.10;74.40;;;;;;5078302;28;20231;-79
2023/03/18 07:51:56;;;;;;;8.63;6.50;;;12.10;74.80;;;;;;5084336;28;20246;-79
2023/03/18 07:54:24;;;;;;;8.98;6.03;;;12.20;74.60;;;;;;5060204;28;21218;-75
2023/03/18 07:56:52;;;;;;;10.13;7.20;;;12.20;74.50;;;;;;5058640;28;20221;-76
2023/03/18 07:59:19;;;;;;;8.27;6.70;;;12.30;74.70;;;;;;5055234;28;20235;-77
2023/03/18 08:01:47;;;;;;;7.13;6.25;;;12.40;74.90;;;;;;5057627;28;20224;-76
2023/03/18 08:04:15;;;;;;;11.00;8.35;;;12.50;75.90;;;;;;5057324;28;20236;-76
2023/03/18 08:06:42;;;;;;;10.57;8.55;;;12.50;75.50;;;;;;5056768;28;20224;-79
2023/03/18 08:09:11;;;;;;;35.63;23.27;;;12.50;75.10;;;;;;5058659;28;20233;-79
2023/03/18 08:11:41;;;;;;;15.00;10.65;;;12.60;75.60;;;;;;5058900;28;20291;-79
2023/03/18 08:14:08;;;;;;;10.52;7.65;;;12.70;75.90;;;;;;5055379;28;20620;-80
2023/03/18 08:16:35;;;;;;;12.38;9.32;;;12.80;75.90;;;;;;5060647;28;20231;-79
2023/03/18 08:19:02;;;;;;;15.63;11.50;;;12.80;76.20;;;;;;5061802;28;20298;-79
2023/03/18 08:21:29;;;;;;;9.18;8.30;;;12.90;76.40;;;;;;5059921;28;20286;-79
2023/03/18 08:23:57;;;;;;;7.72;6.57;;;13.00;76.10;;;;;;5058313;28;20220;-75
2023/03/18 08:26:26;;;;;;;7.25;5.95;;;13.10;75.90;;;;;;5052878;28;20229;-76
2023/03/18 08:28:53;;;;;;;10.32;8.80;;;13.10;76.10;;;;;;5058444;28;20558;-79
2023/03/18 08:31:20;;;;;;;111.63;62.17;;;13.20;76.50;;;;;;5056944;28;20300;-79
2023/03/18 08:33:48;;;;;;;22.67;16.97;;;13.30;76.70;;;;;;5059567;28;20464;-76
2023/03/18 08:36:16;;;;;;;10.20;8.45;;;13.40;77.20;;;;;;5054848;28;20482;-76
2023/03/18 08:38:43;;;;;;;10.35;8.52;;;13.40;77.00;;;;;;5056397;28;20231;-79
2023/03/18 08:41:10;;;;;;;9.10;7.93;;;13.50;76.90;;;;;;5056294;28;20237;-79
2023/03/18 08:43:38;;;;;;;11.35;9.18;;;13.60;76.60;;;;;;5056608;28;20224;-76
2023/03/18 08:46:06;;;;;;;9.15;7.70;;;13.60;76.20;;;;;;5056285;28;20229;-79
2023/03/18 08:48:36;;;;;;;8.77;6.78;;;13.70;76.70;;;;;;5056627;28;20315;-76
2023/03/18 08:51:07;;;;;;;8.15;6.70;;;13.80;76.80;;;;;;5055897;28;20220;-77
2023/03/18 08:53:34;;;;;;;8.57;7.67;;;13.90;76.90;;;;;;5058121;28;20557;-76
2023/03/18 08:56:02;;;;;;;8.83;7.60;;;14.00;76.90;;;;;;5060272;28;20475;-76
2023/03/18 08:58:29;;;;;;;7.23;6.40;;;14.10;76.90;;;;;;5059464;28;20494;-78
2023/03/18 09:00:58;;;;;;;12.60;8.40;;;14.20;76.50;;;;;;5058732;28;20467;-79
2023/03/18 09:03:25;;;;;;;9.53;7.03;;;14.30;76.50;;;;;;5064296;28;20471;-79
2023/03/18 09:05:54;;;;;;;7.57;6.77;;;14.30;76.20;;;;;;5069568;28;20475;-79
2023/03/18 09:08:22;;;;;;;6.20;5.60;;;14.40;76.40;;;;;;5068643;28;20638;-80
2023/03/18 09:10:52;;;;;;;17.30;12.83;;;14.50;76.50;;;;;;5071175;28;20443;-78
2023/03/18 09:13:19;;;;;;;7.70;6.80;;;14.60;76.50;;;;;;5064576;28;20479;-79
2023/03/18 09:18:49;;;;;;;8.13;7.20;;;14.70;76.40;;;;;;5010735;28;20498;-79
2023/03/18 09:21:16;;;;;;;7.13;6.43;;;14.80;76.20;;;;;;5066872;28;20471;-79
2023/03/18 09:23:43;;;;;;;5.30;4.90;;;14.80;76.10;;;;;;5070562;28;20789;-79
2023/03/18 09:26:10;;;;;;;6.03;5.53;;;14.90;76.40;;;;;;5072996;28;20467;-79
2023/03/18 09:28:37;;;;;;;5.80;5.30;;;14.90;76.50;;;;;;5070665;28;20472;-79
2023/03/18 09:31:11;;;;;;;6.50;5.80;;;14.90;76.40;;;;;;5070139;28;20467;-79
2023/03/18 09:33:41;;;;;;;7.57;6.77;;;14.90;76.70;;;;;;5070564;28;20485;-77
2023/03/18 09:36:14;;;;;;;8.50;6.30;;;15.00;76.90;;;;;;5068977;28;20468;-76
2023/03/18 09:38:41;;;;;;;9.17;6.40;;;15.00;77.30;;;;;;5074407;28;20497;-78
2023/03/18 09:41:29;;;;;;;7.63;6.77;;;15.00;77.30;;;;;;5073087;28;20463;-78
2023/03/18 09:44:07;;;;;;;7.67;6.07;;;15.10;77.30;;;;;;5069844;28;20491;-79
2023/03/18 09:46:48;;;;;;;7.43;6.73;;;15.10;76.90;;;;;;5068353;28;20463;-79
2023/03/18 09:49:34;;;;;;;9.60;8.30;;;15.10;76.30;;;;;;5062196;28;20486;-76
2023/03/18 09:52:13;;;;;;;7.37;6.67;;;15.20;76.80;;;;;;5060767;28;20497;-76
2023/03/18 09:54:46;;;;;;;9.20;5.90;;;15.20;77.10;;;;;;5058290;28;20538;-79
2023/03/18 09:57:21;;;;;;;7.70;6.90;;;15.20;77.40;;;;;;5060282;28;20790;-80
2023/03/18 09:59:53;;;;;;;6.73;6.03;;;15.30;77.30;;;;;;5056582;28;20455;-80
2023/03/18 10:02:25;;;;;;;8.43;6.47;;;15.40;77.40;;;;;;5056684;28;20502;-76
2023/03/18 10:04:56;;;;;;;11.60;7.47;;;15.40;77.40;;;;;;5056299;28;20459;-76
2023/03/18 10:07:31;;;;;;;7.83;6.20;;;15.50;77.70;;;;;;5055108;28;20513;-76
2023/03/18 10:10:04;;;;;;;7.70;5.30;;;15.60;77.90;;;;;;5053729;28;20470;-76
2023/03/18 10:12:34;;;;;;;5.87;5.27;;;15.60;77.80;;;;;;5054092;28;20463;-79
2023/03/18 10:15:12;;;;;;;5.80;5.07;;;15.70;77.80;;;;;;5055419;28;20458;-76
2023/03/18 10:17:44;;;;;;;8.67;7.40;;;15.80;78.00;;;;;;5055570;28;20888;-79
2023/03/18 10:20:17;;;;;;;5.70;5.10;;;15.90;77.60;;;;;;5057791;28;20965;-76
2023/03/18 10:23:01;;;;;;;5.30;4.80;;;16.00;77.60;;;;;;5056361;28;20537;-77
2023/03/18 10:25:36;;;;;;;7.93;5.43;;;16.10;77.50;;;;;;5057985;28;20506;-76
2023/03/18 10:28:30;;;;;;;7.63;5.40;;;16.10;77.50;;;;;;5056999;28;20796;-74
2023/03/18 10:31:10;;;;;;;6.07;5.33;;;16.20;77.80;;;;;;5056524;28;20525;-80
2023/03/18 10:33:46;;;;;;;7.13;6.40;;;16.20;77.90;;;;;;5056769;28;20482;-76
2023/03/18 10:36:22;;;;;;;6.00;5.50;;;16.30;77.90;;;;;;5057213;28;20470;-76
2023/03/18 10:38:52;;;;;;;6.07;5.40;;;16.30;77.30;;;;;;5058023;28;20458;-79
2023/03/18 10:41:25;;;;;;;6.17;5.57;;;16.30;77.10;;;;;;5056511;28;20501;-77
2023/03/18 10:44:18;;;;;;;12.60;6.80;;;16.40;77.30;;;;;;5047042;28;20463;-78
2023/03/18 10:46:47;;;;;;;10.57;8.50;;;16.40;77.20;;;;;;5057952;28;20467;-79
2023/03/18 10:49:23;;;;;;;7.67;6.73;;;16.40;78.80;;;;;;5057218;28;20532;-76
2023/03/18 10:51:55;;;;;;;7.57;6.70;;;16.50;78.70;;;;;;5056761;28;20960;-77
2023/03/18 10:54:30;;;;;;;6.53;5.20;;;16.50;79.20;;;;;;5056933;28;20851;-76
2023/03/18 10:56:57;;;;;;;6.17;5.60;;;16.50;78.70;;;;;;5056026;28;20537;-80
2023/03/18 10:59:25;;;;;;;8.80;5.30;;;16.60;78.20;;;;;;5055977;28;20533;-81
2023/03/18 11:01:57;;;;;;;7.63;5.23;;;16.60;78.60;;;;;;5054878;28;20482;-81
2023/03/18 11:04:25;;;;;;;9.80;6.10;;;16.60;78.40;;;;;;5055431;28;20477;-79
2023/03/18 11:06:57;;;;;;;6.87;6.17;;;16.70;78.80;;;;;;5054626;28;20869;-80
2023/03/18 11:09:32;;;;;;;8.80;6.20;;;16.70;78.20;;;;;;5055385;28;20499;-78
2023/03/18 11:12:04;;;;;;;6.90;6.03;;;16.80;78.40;;;;;;5054182;28;20940;-78
2023/03/18 11:14:32;;;;;;;6.23;5.20;;;16.80;79.00;;;;;;5055274;28;20586;-78
2023/03/18 11:17:01;;;;;;;7.70;5.17;;;16.90;79.50;;;;;;5054987;28;20466;-76
2023/03/18 11:19:32;;;;;;;5.73;5.17;;;17.00;79.60;;;;;;5056027;28;20474;-79
2023/03/18 11:22:10;;;;;;;8.17;4.97;;;17.00;79.00;;;;;;5055372;28;20459;-80
2023/03/18 11:24:41;;;;;;;5.87;5.33;;;17.10;79.30;;;;;;5055643;28;20840;-80
2023/03/18 11:27:29;;;;;;;5.97;5.37;;;17.20;79.60;;;;;;5054953;28;20525;-81
2023/03/18 11:29:59;;;;;;;12.57;6.87;;;17.20;78.90;;;;;;5054415;28;20579;-79
2023/03/18 11:32:28;;;;;;;7.17;5.80;;;17.20;78.30;;;;;;5060970;28;20462;-80
2023/03/18 11:34:57;;;;;;;8.30;5.20;;;17.30;78.40;;;;;;5074125;28;20470;-81
2023/03/18 11:37:29;;;;;;;5.90;5.30;;;17.40;78.50;;;;;;5074398;28;20596;-80
2023/03/18 11:40:17;;;;;;;10.70;5.90;;;17.40;78.80;;;;;;5073897;28;20781;-79
2023/03/18 11:42:46;;;;;;;6.33;5.73;;;17.50;79.00;;;;;;5073944;28;20476;-79
2023/03/18 11:45:34;;;;;;;12.17;9.93;;;17.60;79.30;;;;;;5074812;28;20466;-80
2023/03/18 11:48:02;;;;;;;10.20;7.30;;;17.60;79.60;;;;;;5073655;28;20550;-80
2023/03/18 11:50:39;;;;;;;7.27;5.80;;;17.60;79.90;;;;;;5074667;28;20466;-81
2023/03/18 11:53:15;;;;;;;9.17;5.10;;;17.70;80.90;;;;;;5074784;28;21370;-78
2023/03/18 11:55:52;;;;;;;6.63;4.33;;;17.60;82.00;;;;;;5074253;28;20557;-81
2023/03/18 11:58:46;;;;;;;7.50;4.37;;;17.70;82.60;;;;;;5074421;28;20955;-79
2023/03/18 12:01:21;;;;;;;5.10;4.60;;;17.70;83.30;;;;;;5074515;28;20497;-82
2023/03/18 12:04:07;;;;;;;8.00;6.90;;;17.70;83.80;;;;;;5075098;28;20474;-77
2023/03/18 12:06:40;;;;;;;10.50;7.80;;;17.80;84.10;;;;;;5075023;28;20459;-78
2023/03/18 12:09:14;;;;;;;10.97;8.53;;;17.80;84.50;;;;;;5078712;28;20766;-80
2023/03/18 12:11:59;;;;;;;10.10;8.60;;;17.90;84.60;;;;;;5079682;28;20470;-83
2023/03/18 12:14:33;;;;;;;9.83;8.60;;;17.90;84.70;;;;;;5082567;28;20876;-79
2023/03/18 12:17:13;;;;;;;8.67;7.87;;;17.80;84.50;;;;;;5077460;28;20481;-77
2023/03/18 12:20:08;;;;;;;6.40;5.80;;;17.90;84.30;;;;;;5081433;28;20476;-83
2023/03/18 12:22:49;;;;;;;13.60;10.80;;;17.90;84.10;;;;;;5082182;28;20496;-81
2023/03/18 12:25:29;;;;;;;10.73;8.73;;;17.90;84.30;;;;;;5080375;28;20490;-80
2023/03/18 12:28:03;;;;;;;6.93;5.80;;;17.90;84.80;;;;;;5078210;28;20531;-78
2023/03/18 12:30:49;;;;;;;8.40;6.40;;;18.00;85.30;;;;;;5075973;28;20515;-76
2023/03/18 12:33:31;;;;;;;5.40;4.73;;;18.00;85.70;;;;;;5064464;28;20487;-80
2023/03/18 12:36:08;;;;;;;6.90;5.50;;;18.00;85.80;;;;;;5055679;28;20467;-79
2023/03/18 12:38:53;;;;;;;8.00;5.00;;;18.10;85.80;;;;;;5053901;28;20812;-79
2023/03/18 12:41:32;;;;;;;5.53;4.27;;;18.10;86.00;;;;;;5054177;28;20478;-78
2023/03/18 12:44:16;;;;;;;7.13;4.60;;;18.10;86.50;;;;;;5053433;28;20520;-76
2023/03/18 12:46:49;;;;;;;7.63;5.53;;;18.10;86.60;;;;;;5053827;28;20451;-76
2023/03/18 12:49:21;;;;;;;7.20;5.13;;;18.00;87.20;;;;;;5053954;28;20486;-76
2023/03/18 12:51:56;;;;;;;6.17;5.30;;;18.00;87.50;;;;;;5053007;28;20466;-76
2023/03/18 12:54:28;;;;;;;7.00;5.97;;;18.10;87.90;;;;;;5053419;28;20463;-76
2023/03/18 12:57:02;;;;;;;6.00;5.40;;;18.10;88.00;;;;;;5053513;28;20904;-78
2023/03/18 12:59:36;;;;;;;6.33;5.37;;;18.10;88.10;;;;;;5054505;28;20479;-79
2023/03/18 13:02:31;;;;;;;6.40;5.20;;;18.10;88.40;;;;;;5055238;28;20556;-79
2023/03/18 13:05:02;;;;;;;8.47;6.20;;;18.10;88.90;;;;;;5053860;28;20463;-79